sensor_id;sensor_type;location;lat;lon;timestamp;P1;durP1;ratioP1;P2;durP2;ratioP2
48975;SDS011;34791;52.752;8.346;2023-05-07T00:02:06;36.97;;;19.53;;
48975;SDS011;34791;52.752;8.346;2023-05-07T00:04:32;30.13;;;15.17;;
48975;SDS011;34791;52.752;8.346;2023-05-07T00:07:01;39.40;;;19.43;;
48975;SDS011;34791;52.752;8.346;2023-05-07T00:09:27;28.23;;;14.03;;
48975;SDS011;34791;52.752;8.346;2023-05-07T00:11:53;32.63;;;15.40;;
48975;SDS011;34791;52.752;8.346;2023-05-07T00:14:19;38.03;;;20.43;;
48975;SDS011;34791;52.752;8.346;2023-05-07T00:16:44;31.97;;;15.93;;
48975;SDS011;34791;52.752;8.346;2023-05-07T00:19:09;31.33;;;15.97;;
48975;SDS011;34791;52.752;8.346;2023-05-07T00:21:35;35.87;;;18.90;;
48975;SDS011;34791;52.752;8.346;2023-05-07T00:24:00;34.37;;;17.90;;
48975;SDS011;34791;52.752;8.346;2023-05-07T00:26:25;29.33;;;16.13;;
48975;SDS011;34791;52.752;8.346;2023-05-07T00:28:51;31.53;;;17.43;;
48975;SDS011;34791;52.752;8.346;2023-05-07T00:31:16;26.53;;;12.87;;
48975;SDS011;34791;52.752;8.346;2023-05-07T00:33:41;35.93;;;20.23;;
48975;SDS011;34791;52.752;8.346;2023-05-07T00:36:07;23.60;;;11.13;;
48975;SDS011;34791;52.752;8.346;2023-05-07T00:38:32;20.13;;;9.47;;
48975;SDS011;34791;52.752;8.346;2023-05-07T00:40:57;32.63;;;15.60;;
48975;SDS011;34791;52.752;8.346;2023-05-07T00:43:23;26.10;;;13.57;;
48975;SDS011;34791;52.752;8.346;2023-05-07T00:45:48;33.30;;;14.93;;
48975;SDS011;34791;52.752;8.346;2023-05-07T00:48:13;33.03;;;16.40;;
48975;SDS011;34791;52.752;8.346;2023-05-07T00:50:39;34.20;;;19.93;;
48975;SDS011;34791;52.752;8.346;2023-05-07T00:53:04;18.80;;;9.00;;
48975;SDS011;34791;52.752;8.346;2023-05-07T00:55:31;23.03;;;12.17;;
48975;SDS011;34791;52.752;8.346;2023-05-07T00:57:56;26.67;;;14.73;;
48975;SDS011;34791;52.752;8.346;2023-05-07T01:03:24;19.37;;;9.07;;
48975;SDS011;34791;52.752;8.346;2023-05-07T01:05:50;21.60;;;11.07;;
48975;SDS011;34791;52.752;8.346;2023-05-07T01:08:17;23.63;;;13.50;;
48975;SDS011;34791;52.752;8.346;2023-05-07T01:10:42;31.63;;;19.07;;
48975;SDS011;34791;52.752;8.346;2023-05-07T01:13:11;27.57;;;15.23;;
48975;SDS011;34791;52.752;8.346;2023-05-07T01:15:37;19.90;;;10.43;;
48975;SDS011;34791;52.752;8.346;2023-05-07T01:18:03;22.53;;;11.10;;
48975;SDS011;34791;52.752;8.346;2023-05-07T01:20:28;28.60;;;16.33;;
48975;SDS011;34791;52.752;8.346;2023-05-07T01:22:53;25.07;;;14.40;;
48975;SDS011;34791;52.752;8.346;2023-05-07T01:25:19;22.10;;;11.10;;
48975;SDS011;34791;52.752;8.346;2023-05-07T01:27:45;25.00;;;15.57;;
48975;SDS011;34791;52.752;8.346;2023-05-07T01:30:11;24.27;;;14.00;;
48975;SDS011;34791;52.752;8.346;2023-05-07T01:32:43;30.47;;;18.00;;
48975;SDS011;34791;52.752;8.346;2023-05-07T01:35:11;18.53;;;10.07;;
48975;SDS011;34791;52.752;8.346;2023-05-07T01:37:37;12.40;;;6.90;;
48975;SDS011;34791;52.752;8.346;2023-05-07T01:40:03;24.57;;;14.00;;
48975;SDS011;34791;52.752;8.346;2023-05-07T01:42:28;22.33;;;12.83;;
48975;SDS011;34791;52.752;8.346;2023-05-07T01:44:54;26.23;;;13.83;;
48975;SDS011;34791;52.752;8.346;2023-05-07T01:47:20;26.43;;;15.23;;
48975;SDS011;34791;52.752;8.346;2023-05-07T01:49:46;26.40;;;14.97;;
48975;SDS011;34791;52.752;8.346;2023-05-07T01:52:11;26.63;;;14.53;;
48975;SDS011;34791;52.752;8.346;2023-05-07T01:54:37;20.17;;;9.50;;
48975;SDS011;34791;52.752;8.346;2023-05-07T01:57:02;24.57;;;14.10;;
48975;SDS011;34791;52.752;8.346;2023-05-07T01:59:27;24.40;;;14.33;;
48975;SDS011;34791;52.752;8.346;2023-05-07T02:01:53;17.47;;;8.43;;
48975;SDS011;34791;52.752;8.346;2023-05-07T02:04:18;26.50;;;15.03;;
48975;SDS011;34791;52.752;8.346;2023-05-07T02:06:43;19.23;;;10.43;;
48975;SDS011;34791;52.752;8.346;2023-05-07T02:09:08;17.73;;;8.73;;
48975;SDS011;34791;52.752;8.346;2023-05-07T02:11:34;23.03;;;12.70;;
48975;SDS011;34791;52.752;8.346;2023-05-07T02:13:59;22.97;;;12.37;;
48975;SDS011;34791;52.752;8.346;2023-05-07T02:16:24;28.33;;;17.23;;
48975;SDS011;34791;52.752;8.346;2023-05-07T02:18:50;26.83;;;15.63;;
48975;SDS011;34791;52.752;8.346;2023-05-07T02:21:15;23.43;;;13.13;;
48975;SDS011;34791;52.752;8.346;2023-05-07T02:23:40;19.90;;;10.97;;
48975;SDS011;34791;52.752;8.346;2023-05-07T02:26:06;30.80;;;16.83;;
48975;SDS011;34791;52.752;8.346;2023-05-07T02:28:31;25.73;;;15.10;;
48975;SDS011;34791;52.752;8.346;2023-05-07T02:30:56;25.17;;;15.23;;
48975;SDS011;34791;52.752;8.346;2023-05-07T02:33:23;25.20;;;13.63;;
48975;SDS011;34791;52.752;8.346;2023-05-07T02:35:48;20.53;;;11.87;;
48975;SDS011;34791;52.752;8.346;2023-05-07T02:38:14;26.87;;;16.27;;
48975;SDS011;34791;52.752;8.346;2023-05-07T02:40:39;28.47;;;17.27;;
48975;SDS011;34791;52.752;8.346;2023-05-07T02:43:05;23.33;;;14.17;;
48975;SDS011;34791;52.752;8.346;2023-05-07T02:45:31;26.17;;;16.17;;
48975;SDS011;34791;52.752;8.346;2023-05-07T02:47:56;28.30;;;17.73;;
48975;SDS011;34791;52.752;8.346;2023-05-07T02:50:21;27.83;;;14.97;;
48975;SDS011;34791;52.752;8.346;2023-05-07T02:52:46;27.40;;;16.70;;
48975;SDS011;34791;52.752;8.346;2023-05-07T02:55:12;19.57;;;12.00;;
48975;SDS011;34791;52.752;8.346;2023-05-07T02:57:38;29.70;;;16.77;;
48975;SDS011;34791;52.752;8.346;2023-05-07T03:00:21;20.27;;;12.40;;
48975;SDS011;34791;52.752;8.346;2023-05-07T03:02:46;30.67;;;18.60;;
48975;SDS011;34791;52.752;8.346;2023-05-07T03:05:12;23.57;;;11.00;;
48975;SDS011;34791;52.752;8.346;2023-05-07T03:07:37;24.90;;;13.87;;
48975;SDS011;34791;52.752;8.346;2023-05-07T03:10:03;22.83;;;12.87;;
48975;SDS011;34791;52.752;8.346;2023-05-07T03:12:29;23.73;;;12.07;;
48975;SDS011;34791;52.752;8.346;2023-05-07T03:14:54;32.33;;;19.77;;
48975;SDS011;34791;52.752;8.346;2023-05-07T03:17:20;22.13;;;11.83;;
48975;SDS011;34791;52.752;8.346;2023-05-07T03:19:45;25.73;;;13.03;;
48975;SDS011;34791;52.752;8.346;2023-05-07T03:22:11;29.93;;;16.70;;
48975;SDS011;34791;52.752;8.346;2023-05-07T03:24:36;22.87;;;11.03;;
48975;SDS011;34791;52.752;8.346;2023-05-07T03:27:01;28.07;;;16.30;;
48975;SDS011;34791;52.752;8.346;2023-05-07T03:29:26;28.90;;;16.97;;
48975;SDS011;34791;52.752;8.346;2023-05-07T03:31:52;16.77;;;8.77;;
48975;SDS011;34791;52.752;8.346;2023-05-07T03:34:17;14.57;;;8.33;;
48975;SDS011;34791;52.752;8.346;2023-05-07T03:36:47;21.83;;;10.87;;
48975;SDS011;34791;52.752;8.346;2023-05-07T03:39:12;22.03;;;11.83;;
48975;SDS011;34791;52.752;8.346;2023-05-07T03:41:37;19.13;;;9.30;;
48975;SDS011;34791;52.752;8.346;2023-05-07T03:44:03;31.13;;;17.40;;
48975;SDS011;34791;52.752;8.346;2023-05-07T03:46:28;23.33;;;11.77;;
48975;SDS011;34791;52.752;8.346;2023-05-07T03:48:53;29.93;;;15.97;;
48975;SDS011;34791;52.752;8.346;2023-05-07T03:51:18;31.23;;;16.70;;
48975;SDS011;34791;52.752;8.346;2023-05-07T03:53:44;29.17;;;15.13;;
48975;SDS011;34791;52.752;8.346;2023-05-07T03:56:09;18.70;;;7.43;;
48975;SDS011;34791;52.752;8.346;2023-05-07T03:58:35;21.17;;;10.43;;
48975;SDS011;34791;52.752;8.346;2023-05-07T04:01:00;32.87;;;18.20;;
48975;SDS011;34791;52.752;8.346;2023-05-07T04:03:26;20.83;;;9.93;;
48975;SDS011;34791;52.752;8.346;2023-05-07T04:05:51;28.80;;;15.23;;
48975;SDS011;34791;52.752;8.346;2023-05-07T04:08:16;29.50;;;14.27;;
48975;SDS011;34791;52.752;8.346;2023-05-07T04:10:42;26.97;;;13.10;;
48975;SDS011;34791;52.752;8.346;2023-05-07T04:13:07;31.27;;;17.13;;
48975;SDS011;34791;52.752;8.346;2023-05-07T04:15:32;30.23;;;16.93;;
48975;SDS011;34791;52.752;8.346;2023-05-07T04:17:57;32.80;;;16.73;;
48975;SDS011;34791;52.752;8.346;2023-05-07T04:20:23;31.10;;;17.53;;
48975;SDS011;34791;52.752;8.346;2023-05-07T04:22:48;26.17;;;13.20;;
48975;SDS011;34791;52.752;8.346;2023-05-07T04:25:13;28.53;;;14.53;;
48975;SDS011;34791;52.752;8.346;2023-05-07T04:27:40;16.60;;;8.27;;
48975;SDS011;34791;52.752;8.346;2023-05-07T04:30:06;25.70;;;12.43;;
48975;SDS011;34791;52.752;8.346;2023-05-07T04:32:31;25.90;;;12.40;;
48975;SDS011;34791;52.752;8.346;2023-05-07T04:34:57;30.30;;;16.10;;
48975;SDS011;34791;52.752;8.346;2023-05-07T04:37:22;26.47;;;13.50;;
48975;SDS011;34791;52.752;8.346;2023-05-07T04:39:47;22.97;;;11.43;;
48975;SDS011;34791;52.752;8.346;2023-05-07T04:42:16;23.00;;;11.97;;
48975;SDS011;34791;52.752;8.346;2023-05-07T04:44:43;31.17;;;16.47;;
48975;SDS011;34791;52.752;8.346;2023-05-07T04:47:08;26.23;;;13.53;;
48975;SDS011;34791;52.752;8.346;2023-05-07T04:49:34;23.23;;;11.30;;
48975;SDS011;34791;52.752;8.346;2023-05-07T04:51:59;26.00;;;11.00;;
48975;SDS011;34791;52.752;8.346;2023-05-07T04:54:24;29.43;;;16.40;;
48975;SDS011;34791;52.752;8.346;2023-05-07T04:56:50;22.67;;;11.27;;
48975;SDS011;34791;52.752;8.346;2023-05-07T04:59:15;29.33;;;14.63;;
48975;SDS011;34791;52.752;8.346;2023-05-07T05:01:41;23.60;;;11.07;;
48975;SDS011;34791;52.752;8.346;2023-05-07T05:04:06;25.03;;;12.63;;
48975;SDS011;34791;52.752;8.346;2023-05-07T05:06:31;26.17;;;12.60;;
48975;SDS011;34791;52.752;8.346;2023-05-07T05:08:57;26.27;;;14.33;;
48975;SDS011;34791;52.752;8.346;2023-05-07T05:11:22;27.47;;;14.57;;
48975;SDS011;34791;52.752;8.346;2023-05-07T05:13:48;25.47;;;12.63;;
48975;SDS011;34791;52.752;8.346;2023-05-07T05:16:14;20.03;;;9.63;;
48975;SDS011;34791;52.752;8.346;2023-05-07T05:18:39;31.50;;;16.47;;
48975;SDS011;34791;52.752;8.346;2023-05-07T05:21:05;23.53;;;10.40;;
48975;SDS011;34791;52.752;8.346;2023-05-07T05:23:30;31.17;;;17.00;;
48975;SDS011;34791;52.752;8.346;2023-05-07T05:25:56;27.57;;;12.93;;
48975;SDS011;34791;52.752;8.346;2023-05-07T05:28:22;25.50;;;12.90;;
48975;SDS011;34791;52.752;8.346;2023-05-07T05:30:47;31.23;;;14.77;;
48975;SDS011;34791;52.752;8.346;2023-05-07T05:33:13;26.83;;;11.30;;
48975;SDS011;34791;52.752;8.346;2023-05-07T05:35:38;28.53;;;15.03;;
48975;SDS011;34791;52.752;8.346;2023-05-07T05:38:03;25.40;;;13.13;;
48975;SDS011;34791;52.752;8.346;2023-05-07T05:40:29;24.10;;;12.83;;
48975;SDS011;34791;52.752;8.346;2023-05-07T05:42:54;20.83;;;10.07;;
48975;SDS011;34791;52.752;8.346;2023-05-07T05:45:20;21.37;;;10.33;;
48975;SDS011;34791;52.752;8.346;2023-05-07T05:47:45;28.20;;;14.30;;
48975;SDS011;34791;52.752;8.346;2023-05-07T05:50:10;21.57;;;9.87;;
48975;SDS011;34791;52.752;8.346;2023-05-07T05:52:36;26.60;;;14.03;;
48975;SDS011;34791;52.752;8.346;2023-05-07T05:55:01;16.17;;;8.03;;
48975;SDS011;34791;52.752;8.346;2023-05-07T05:57:26;25.87;;;12.43;;
48975;SDS011;34791;52.752;8.346;2023-05-07T05:59:52;16.20;;;7.90;;
48975;SDS011;34791;52.752;8.346;2023-05-07T06:02:17;23.57;;;11.93;;
48975;SDS011;34791;52.752;8.346;2023-05-07T06:04:42;23.10;;;12.90;;
48975;SDS011;34791;52.752;8.346;2023-05-07T06:07:08;18.60;;;7.67;;
48975;SDS011;34791;52.752;8.346;2023-05-07T06:09:33;18.20;;;9.90;;
48975;SDS011;34791;52.752;8.346;2023-05-07T06:11:58;13.47;;;6.37;;
48975;SDS011;34791;52.752;8.346;2023-05-07T06:14:23;17.37;;;9.17;;
48975;SDS011;34791;52.752;8.346;2023-05-07T06:16:49;16.57;;;8.07;;
48975;SDS011;34791;52.752;8.346;2023-05-07T06:19:14;20.63;;;11.03;;
48975;SDS011;34791;52.752;8.346;2023-05-07T06:21:39;14.70;;;8.03;;
48975;SDS011;34791;52.752;8.346;2023-05-07T06:24:05;16.90;;;9.27;;
48975;SDS011;34791;52.752;8.346;2023-05-07T06:26:30;15.90;;;7.53;;
48975;SDS011;34791;52.752;8.346;2023-05-07T06:28:56;19.77;;;10.77;;
48975;SDS011;34791;52.752;8.346;2023-05-07T06:31:21;19.47;;;9.90;;
48975;SDS011;34791;52.752;8.346;2023-05-07T06:33:46;21.83;;;11.80;;
48975;SDS011;34791;52.752;8.346;2023-05-07T06:36:12;14.83;;;7.87;;
48975;SDS011;34791;52.752;8.346;2023-05-07T06:38:37;12.07;;;6.30;;
48975;SDS011;34791;52.752;8.346;2023-05-07T06:41:03;21.60;;;11.40;;
48975;SDS011;34791;52.752;8.346;2023-05-07T06:43:28;19.60;;;9.97;;
48975;SDS011;34791;52.752;8.346;2023-05-07T06:45:53;17.63;;;10.23;;
48975;SDS011;34791;52.752;8.346;2023-05-07T06:48:18;14.50;;;8.03;;
48975;SDS011;34791;52.752;8.346;2023-05-07T06:50:44;17.20;;;8.30;;
48975;SDS011;34791;52.752;8.346;2023-05-07T06:53:09;15.50;;;8.57;;
48975;SDS011;34791;52.752;8.346;2023-05-07T06:55:35;19.77;;;12.47;;
48975;SDS011;34791;52.752;8.346;2023-05-07T06:58:00;16.03;;;9.33;;
48975;SDS011;34791;52.752;8.346;2023-05-07T07:00:28;20.97;;;11.97;;
48975;SDS011;34791;52.752;8.346;2023-05-07T07:02:54;21.07;;;11.90;;
48975;SDS011;34791;52.752;8.346;2023-05-07T07:05:19;15.10;;;8.03;;
48975;SDS011;34791;52.752;8.346;2023-05-07T07:07:45;20.17;;;11.37;;
48975;SDS011;34791;52.752;8.346;2023-05-07T07:10:17;11.03;;;6.10;;
48975;SDS011;34791;52.752;8.346;2023-05-07T07:12:42;17.03;;;9.97;;
48975;SDS011;34791;52.752;8.346;2023-05-07T07:15:09;12.20;;;5.37;;
48975;SDS011;34791;52.752;8.346;2023-05-07T07:17:34;12.60;;;5.80;;
48975;SDS011;34791;52.752;8.346;2023-05-07T07:20:00;9.30;;;4.83;;
48975;SDS011;34791;52.752;8.346;2023-05-07T07:22:25;16.03;;;9.33;;
48975;SDS011;34791;52.752;8.346;2023-05-07T07:24:50;13.13;;;6.50;;
48975;SDS011;34791;52.752;8.346;2023-05-07T07:27:16;15.53;;;8.83;;
48975;SDS011;34791;52.752;8.346;2023-05-07T07:29:41;14.87;;;8.97;;
48975;SDS011;34791;52.752;8.346;2023-05-07T07:32:06;25.30;;;16.13;;
48975;SDS011;34791;52.752;8.346;2023-05-07T07:34:32;18.03;;;10.87;;
48975;SDS011;34791;52.752;8.346;2023-05-07T07:36:57;17.27;;;10.53;;
48975;SDS011;34791;52.752;8.346;2023-05-07T07:39:22;15.57;;;9.10;;
48975;SDS011;34791;52.752;8.346;2023-05-07T07:41:48;13.13;;;7.57;;
48975;SDS011;34791;52.752;8.346;2023-05-07T07:44:13;14.80;;;8.10;;
48975;SDS011;34791;52.752;8.346;2023-05-07T07:46:38;12.57;;;6.60;;
48975;SDS011;34791;52.752;8.346;2023-05-07T07:49:03;12.20;;;4.83;;
48975;SDS011;34791;52.752;8.346;2023-05-07T07:51:29;11.43;;;6.50;;
48975;SDS011;34791;52.752;8.346;2023-05-07T07:53:55;9.50;;;4.50;;
48975;SDS011;34791;52.752;8.346;2023-05-07T07:56:22;12.50;;;6.90;;
48975;SDS011;34791;52.752;8.346;2023-05-07T07:58:47;11.80;;;6.47;;
48975;SDS011;34791;52.752;8.346;2023-05-07T08:01:13;14.07;;;7.90;;
48975;SDS011;34791;52.752;8.346;2023-05-07T08:03:38;15.00;;;8.07;;
48975;SDS011;34791;52.752;8.346;2023-05-07T08:06:03;14.43;;;8.40;;
48975;SDS011;34791;52.752;8.346;2023-05-07T08:08:29;16.83;;;10.70;;
48975;SDS011;34791;52.752;8.346;2023-05-07T08:10:54;11.40;;;5.73;;
48975;SDS011;34791;52.752;8.346;2023-05-07T08:13:19;14.03;;;8.70;;
48975;SDS011;34791;52.752;8.346;2023-05-07T08:15:45;16.80;;;10.57;;
48975;SDS011;34791;52.752;8.346;2023-05-07T08:18:10;17.00;;;10.70;;
48975;SDS011;34791;52.752;8.346;2023-05-07T08:20:35;14.07;;;8.73;;
48975;SDS011;34791;52.752;8.346;2023-05-07T08:23:04;15.73;;;9.90;;
48975;SDS011;34791;52.752;8.346;2023-05-07T08:25:32;12.83;;;8.07;;
48975;SDS011;34791;52.752;8.346;2023-05-07T08:27:57;12.80;;;6.97;;
48975;SDS011;34791;52.752;8.346;2023-05-07T08:30:22;14.07;;;8.87;;
48975;SDS011;34791;52.752;8.346;2023-05-07T08:32:48;11.80;;;5.73;;
48975;SDS011;34791;52.752;8.346;2023-05-07T08:35:14;11.93;;;6.33;;
48975;SDS011;34791;52.752;8.346;2023-05-07T08:37:39;12.90;;;7.27;;
48975;SDS011;34791;52.752;8.346;2023-05-07T08:40:05;14.90;;;9.17;;
48975;SDS011;34791;52.752;8.346;2023-05-07T08:42:31;13.33;;;8.10;;
48975;SDS011;34791;52.752;8.346;2023-05-07T08:44:57;10.90;;;6.30;;
48975;SDS011;34791;52.752;8.346;2023-05-07T08:47:25;10.47;;;6.13;;
48975;SDS011;34791;52.752;8.346;2023-05-07T08:49:54;10.00;;;6.27;;
48975;SDS011;34791;52.752;8.346;2023-05-07T08:52:20;12.03;;;8.03;;
48975;SDS011;34791;52.752;8.346;2023-05-07T08:54:45;12.37;;;7.47;;
48975;SDS011;34791;52.752;8.346;2023-05-07T08:57:11;9.73;;;6.77;;
48975;SDS011;34791;52.752;8.346;2023-05-07T08:59:36;12.60;;;8.97;;
48975;SDS011;34791;52.752;8.346;2023-05-07T09:02:01;10.27;;;5.17;;
48975;SDS011;34791;52.752;8.346;2023-05-07T09:04:27;12.73;;;7.90;;
48975;SDS011;34791;52.752;8.346;2023-05-07T09:06:52;11.27;;;6.47;;
48975;SDS011;34791;52.752;8.346;2023-05-07T09:09:17;11.83;;;8.03;;
48975;SDS011;34791;52.752;8.346;2023-05-07T09:11:46;10.23;;;6.40;;
48975;SDS011;34791;52.752;8.346;2023-05-07T09:14:11;11.50;;;6.97;;
48975;SDS011;34791;52.752;8.346;2023-05-07T09:16:36;10.80;;;6.33;;
48975;SDS011;34791;52.752;8.346;2023-05-07T09:19:01;11.37;;;6.70;;
48975;SDS011;34791;52.752;8.346;2023-05-07T09:21:27;11.10;;;7.67;;
48975;SDS011;34791;52.752;8.346;2023-05-07T09:23:53;10.30;;;6.80;;
48975;SDS011;34791;52.752;8.346;2023-05-07T09:26:20;10.70;;;7.13;;
48975;SDS011;34791;52.752;8.346;2023-05-07T09:28:46;11.87;;;7.50;;
48975;SDS011;34791;52.752;8.346;2023-05-07T09:31:11;10.67;;;7.40;;
48975;SDS011;34791;52.752;8.346;2023-05-07T09:33:37;10.57;;;7.47;;
48975;SDS011;34791;52.752;8.346;2023-05-07T09:36:03;9.63;;;5.82;;
48975;SDS011;34791;52.752;8.346;2023-05-07T09:38:28;7.73;;;4.03;;
48975;SDS011;34791;52.752;8.346;2023-05-07T09:41:01;10.13;;;7.13;;
48975;SDS011;34791;52.752;8.346;2023-05-07T09:43:26;7.93;;;5.03;;
48975;SDS011;34791;52.752;8.346;2023-05-07T09:45:56;9.93;;;5.97;;
48975;SDS011;34791;52.752;8.346;2023-05-07T09:48:23;9.55;;;6.20;;
48975;SDS011;34791;52.752;8.346;2023-05-07T09:50:49;8.05;;;4.80;;
48975;SDS011;34791;52.752;8.346;2023-05-07T09:53:15;11.30;;;7.55;;
48975;SDS011;34791;52.752;8.346;2023-05-07T09:55:41;8.27;;;4.10;;
48975;SDS011;34791;52.752;8.346;2023-05-07T09:58:06;8.40;;;5.53;;
48975;SDS011;34791;52.752;8.346;2023-05-07T10:00:32;8.10;;;5.43;;
48975;SDS011;34791;52.752;8.346;2023-05-07T10:02:58;9.27;;;6.57;;
48975;SDS011;34791;52.752;8.346;2023-05-07T10:05:24;10.68;;;6.65;;
48975;SDS011;34791;52.752;8.346;2023-05-07T10:07:50;8.50;;;6.28;;
48975;SDS011;34791;52.752;8.346;2023-05-07T10:10:15;9.13;;;5.75;;
48975;SDS011;34791;52.752;8.346;2023-05-07T10:12:42;9.90;;;5.50;;
48975;SDS011;34791;52.752;8.346;2023-05-07T10:15:08;8.95;;;6.43;;
48975;SDS011;34791;52.752;8.346;2023-05-07T10:17:37;9.25;;;6.32;;
48975;SDS011;34791;52.752;8.346;2023-05-07T10:20:03;9.63;;;6.72;;
48975;SDS011;34791;52.752;8.346;2023-05-07T10:22:30;9.50;;;5.38;;
48975;SDS011;34791;52.752;8.346;2023-05-07T10:24:57;9.55;;;6.43;;
48975;SDS011;34791;52.752;8.346;2023-05-07T10:27:24;11.57;;;8.43;;
48975;SDS011;34791;52.752;8.346;2023-05-07T10:32:45;8.65;;;7.13;;
48975;SDS011;34791;52.752;8.346;2023-05-07T10:35:16;8.70;;;5.50;;
48975;SDS011;34791;52.752;8.346;2023-05-07T10:37:42;11.38;;;6.47;;
48975;SDS011;34791;52.752;8.346;2023-05-07T10:40:08;11.15;;;8.20;;
48975;SDS011;34791;52.752;8.346;2023-05-07T10:42:34;10.70;;;6.57;;
48975;SDS011;34791;52.752;8.346;2023-05-07T10:45:10;9.57;;;6.85;;
48975;SDS011;34791;52.752;8.346;2023-05-07T10:47:36;9.40;;;6.55;;
48975;SDS011;34791;52.752;8.346;2023-05-07T10:50:22;10.07;;;7.57;;
48975;SDS011;34791;52.752;8.346;2023-05-07T10:53:04;11.57;;;8.18;;
48975;SDS011;34791;52.752;8.346;2023-05-07T10:55:32;9.80;;;7.25;;
48975;SDS011;34791;52.752;8.346;2023-05-07T10:58:02;10.93;;;8.10;;
48975;SDS011;34791;52.752;8.346;2023-05-07T11:00:43;9.45;;;6.45;;
48975;SDS011;34791;52.752;8.346;2023-05-07T11:03:08;10.82;;;7.75;;
48975;SDS011;34791;52.752;8.346;2023-05-07T11:05:34;10.18;;;6.82;;
48975;SDS011;34791;52.752;8.346;2023-05-07T11:08:03;11.30;;;7.65;;
48975;SDS011;34791;52.752;8.346;2023-05-07T11:10:47;9.77;;;6.80;;
48975;SDS011;34791;52.752;8.346;2023-05-07T11:13:14;10.45;;;7.72;;
48975;SDS011;34791;52.752;8.346;2023-05-07T11:15:40;8.60;;;5.70;;
48975;SDS011;34791;52.752;8.346;2023-05-07T11:18:07;11.57;;;8.23;;
48975;SDS011;34791;52.752;8.346;2023-05-07T11:26:20;11.63;;;7.00;;
48975;SDS011;34791;52.752;8.346;2023-05-07T11:28:46;10.50;;;7.70;;
48975;SDS011;34791;52.752;8.346;2023-05-07T11:31:11;10.10;;;7.00;;
48975;SDS011;34791;52.752;8.346;2023-05-07T11:33:37;10.88;;;7.82;;
48975;SDS011;34791;52.752;8.346;2023-05-07T11:36:03;9.25;;;5.47;;
48975;SDS011;34791;52.752;8.346;2023-05-07T11:38:35;9.50;;;7.03;;
48975;SDS011;34791;52.752;8.346;2023-05-07T11:41:01;13.18;;;7.00;;
48975;SDS011;34791;52.752;8.346;2023-05-07T11:43:27;8.88;;;6.13;;
48975;SDS011;34791;52.752;8.346;2023-05-07T11:45:53;7.45;;;4.95;;
48975;SDS011;34791;52.752;8.346;2023-05-07T11:48:18;11.00;;;7.47;;
48975;SDS011;34791;52.752;8.346;2023-05-07T11:51:01;9.48;;;6.38;;
48975;SDS011;34791;52.752;8.346;2023-05-07T11:53:27;10.13;;;7.43;;
48975;SDS011;34791;52.752;8.346;2023-05-07T11:55:53;9.10;;;7.10;;
48975;SDS011;34791;52.752;8.346;2023-05-07T11:58:20;8.45;;;5.40;;
48975;SDS011;34791;52.752;8.346;2023-05-07T12:00:49;8.48;;;6.35;;
48975;SDS011;34791;52.752;8.346;2023-05-07T12:03:15;10.25;;;6.78;;
48975;SDS011;34791;52.752;8.346;2023-05-07T12:05:40;9.88;;;6.70;;
48975;SDS011;34791;52.752;8.346;2023-05-07T12:08:06;9.25;;;6.93;;
48975;SDS011;34791;52.752;8.346;2023-05-07T12:10:32;9.80;;;6.88;;
48975;SDS011;34791;52.752;8.346;2023-05-07T12:12:57;10.50;;;8.10;;
48975;SDS011;34791;52.752;8.346;2023-05-07T12:15:22;8.98;;;6.28;;
48975;SDS011;34791;52.752;8.346;2023-05-07T12:17:48;9.15;;;7.20;;
48975;SDS011;34791;52.752;8.346;2023-05-07T12:20:13;9.38;;;6.55;;
48975;SDS011;34791;52.752;8.346;2023-05-07T12:22:39;9.75;;;7.30;;
48975;SDS011;34791;52.752;8.346;2023-05-07T12:25:05;9.02;;;6.85;;
48975;SDS011;34791;52.752;8.346;2023-05-07T12:27:31;9.88;;;6.20;;
48975;SDS011;34791;52.752;8.346;2023-05-07T12:29:57;8.68;;;5.53;;
48975;SDS011;34791;52.752;8.346;2023-05-07T12:32:22;11.38;;;7.35;;
48975;SDS011;34791;52.752;8.346;2023-05-07T12:34:51;9.98;;;7.57;;
48975;SDS011;34791;52.752;8.346;2023-05-07T12:37:16;10.35;;;6.13;;
48975;SDS011;34791;52.752;8.346;2023-05-07T12:39:48;9.80;;;7.57;;
48975;SDS011;34791;52.752;8.346;2023-05-07T12:42:16;12.23;;;7.35;;
48975;SDS011;34791;52.752;8.346;2023-05-07T12:44:45;8.98;;;5.45;;
48975;SDS011;34791;52.752;8.346;2023-05-07T12:47:11;11.07;;;7.65;;
48975;SDS011;34791;52.752;8.346;2023-05-07T12:49:37;10.90;;;7.68;;
48975;SDS011;34791;52.752;8.346;2023-05-07T12:52:03;10.25;;;7.50;;
48975;SDS011;34791;52.752;8.346;2023-05-07T12:54:29;10.73;;;6.35;;
48975;SDS011;34791;52.752;8.346;2023-05-07T12:57:05;10.48;;;7.18;;
48975;SDS011;34791;52.752;8.346;2023-05-07T12:59:32;9.07;;;5.75;;
48975;SDS011;34791;52.752;8.346;2023-05-07T13:01:57;8.90;;;5.95;;
48975;SDS011;34791;52.752;8.346;2023-05-07T13:04:24;9.27;;;6.70;;
48975;SDS011;34791;52.752;8.346;2023-05-07T13:06:49;9.63;;;5.18;;
48975;SDS011;34791;52.752;8.346;2023-05-07T13:09:15;9.63;;;6.68;;
48975;SDS011;34791;52.752;8.346;2023-05-07T13:11:41;10.13;;;6.18;;
48975;SDS011;34791;52.752;8.346;2023-05-07T13:14:06;10.00;;;7.45;;
48975;SDS011;34791;52.752;8.346;2023-05-07T13:16:31;9.20;;;4.45;;
48975;SDS011;34791;52.752;8.346;2023-05-07T13:18:57;10.68;;;6.93;;
48975;SDS011;34791;52.752;8.346;2023-05-07T13:21:22;12.70;;;7.47;;
48975;SDS011;34791;52.752;8.346;2023-05-07T13:23:48;10.15;;;7.40;;
48975;SDS011;34791;52.752;8.346;2023-05-07T13:26:13;10.50;;;7.25;;
48975;SDS011;34791;52.752;8.346;2023-05-07T13:28:39;12.02;;;7.78;;
48975;SDS011;34791;52.752;8.346;2023-05-07T13:31:04;11.30;;;8.50;;
48975;SDS011;34791;52.752;8.346;2023-05-07T13:33:29;11.77;;;8.18;;
48975;SDS011;34791;52.752;8.346;2023-05-07T13:35:55;10.50;;;8.13;;
48975;SDS011;34791;52.752;8.346;2023-05-07T13:38:22;10.95;;;7.78;;
48975;SDS011;34791;52.752;8.346;2023-05-07T13:40:47;12.25;;;8.05;;
48975;SDS011;34791;52.752;8.346;2023-05-07T13:43:13;9.10;;;6.07;;
48975;SDS011;34791;52.752;8.346;2023-05-07T13:45:38;9.80;;;6.65;;
48975;SDS011;34791;52.752;8.346;2023-05-07T13:48:03;11.63;;;9.02;;
48975;SDS011;34791;52.752;8.346;2023-05-07T13:50:29;12.45;;;8.43;;
48975;SDS011;34791;52.752;8.346;2023-05-07T13:52:55;12.18;;;8.82;;
48975;SDS011;34791;52.752;8.346;2023-05-07T13:55:21;12.10;;;9.38;;
48975;SDS011;34791;52.752;8.346;2023-05-07T13:57:47;14.15;;;9.40;;
48975;SDS011;34791;52.752;8.346;2023-05-07T14:00:13;11.60;;;8.30;;
48975;SDS011;34791;52.752;8.346;2023-05-07T14:02:38;12.00;;;8.82;;
48975;SDS011;34791;52.752;8.346;2023-05-07T14:05:04;10.52;;;7.93;;
48975;SDS011;34791;52.752;8.346;2023-05-07T14:07:29;11.70;;;8.68;;
48975;SDS011;34791;52.752;8.346;2023-05-07T14:09:55;12.65;;;9.02;;
48975;SDS011;34791;52.752;8.346;2023-05-07T14:12:20;11.10;;;7.85;;
48975;SDS011;34791;52.752;8.346;2023-05-07T14:14:46;11.48;;;8.75;;
48975;SDS011;34791;52.752;8.346;2023-05-07T14:17:12;14.13;;;10.02;;
48975;SDS011;34791;52.752;8.346;2023-05-07T14:19:37;9.80;;;7.47;;
48975;SDS011;34791;52.752;8.346;2023-05-07T14:22:02;8.80;;;6.68;;
48975;SDS011;34791;52.752;8.346;2023-05-07T14:24:28;12.43;;;8.20;;
48975;SDS011;34791;52.752;8.346;2023-05-07T14:26:53;14.20;;;8.60;;
48975;SDS011;34791;52.752;8.346;2023-05-07T14:29:18;10.32;;;7.75;;
48975;SDS011;34791;52.752;8.346;2023-05-07T14:31:44;12.20;;;8.70;;
48975;SDS011;34791;52.752;8.346;2023-05-07T14:34:10;8.55;;;5.80;;
48975;SDS011;34791;52.752;8.346;2023-05-07T14:36:35;10.32;;;7.30;;